createdAt,value
2022-08-27T00:01:00.859Z,26.93
2022-08-27T00:03:31.732Z,26.94
2022-08-27T00:06:01.451Z,27.09
2022-08-27T00:10:57.650Z,27.06
2022-08-27T00:13:28.504Z,27.12
2022-08-27T00:15:57.677Z,26.88
2022-08-27T00:18:27.185Z,26.78
2022-08-27T00:20:56.573Z,26.64
2022-08-27T00:23:26.208Z,26.51
2022-08-27T00:25:56.613Z,26.46
2022-08-27T00:28:30.471Z,26.68
2022-08-27T00:31:00.401Z,26.77
2022-08-27T00:33:31.954Z,26.89
2022-08-27T00:36:01.597Z,26.90
2022-08-27T00:38:31.853Z,26.76
2022-08-27T00:41:01.567Z,26.74
2022-08-27T00:43:44.395Z,26.98
2022-08-27T00:46:21.295Z,26.93
2022-08-27T00:48:55.740Z,26.70
2022-08-27T00:51:26.086Z,26.41
2022-08-27T00:53:56.180Z,26.24
2022-08-27T00:56:29.187Z,26.18
2022-08-27T00:58:59.902Z,26.11
2022-08-27T01:01:33.805Z,26.02
2022-08-27T01:04:07.396Z,25.88
2022-08-27T01:06:39.107Z,26.45
2022-08-27T01:09:16.890Z,25.82
2022-08-27T01:11:49.781Z,25.55
2022-08-27T01:14:21.159Z,25.56
2022-08-27T01:16:51.416Z,26.17
2022-08-27T01:19:29.132Z,25.71
2022-08-27T01:22:07.422Z,25.69
2022-08-27T01:24:42.542Z,25.61
2022-08-27T01:27:19.967Z,25.45
2022-08-27T01:29:49.595Z,25.31
2022-08-27T01:32:23.786Z,25.32
2022-08-27T01:34:53.318Z,25.18
2022-08-27T01:37:24.647Z,25.19
2022-08-27T01:39:59.332Z,25.77
2022-08-27T01:42:32.390Z,25.22
2022-08-27T01:45:05.683Z,25.01
2022-08-27T01:47:37.588Z,24.92
2022-08-27T01:50:08.241Z,25.51
2022-08-27T01:52:38.376Z,24.99
2022-08-27T01:55:13.116Z,24.93
2022-08-27T01:57:43.467Z,24.85
2022-08-27T02:00:16.477Z,24.83
2022-08-27T02:02:46.753Z,24.73
2022-08-27T02:05:17.139Z,24.72
2022-08-27T02:07:46.860Z,24.76
2022-08-27T02:10:23.838Z,24.86
2022-08-27T02:12:55.095Z,24.75
2022-08-27T02:15:25.342Z,24.70
2022-08-27T02:17:55.411Z,24.69
2022-08-27T02:20:27.914Z,24.61
2022-08-27T02:22:59.253Z,24.56
2022-08-27T02:25:30.154Z,24.60
2022-08-27T02:28:01.430Z,24.67
2022-08-27T02:30:33.043Z,24.71
2022-08-27T02:33:02.853Z,24.66
2022-08-27T02:35:33.891Z,24.69
2022-08-27T02:38:03.527Z,24.67
2022-08-27T02:40:34.470Z,24.69
2022-08-27T02:43:04.081Z,24.69
2022-08-27T02:45:33.647Z,24.55
2022-08-27T02:48:05.871Z,24.46
2022-08-27T02:50:35.844Z,24.51
2022-08-27T02:53:06.572Z,24.69
2022-08-27T02:55:37.485Z,24.75
2022-08-27T02:58:06.892Z,24.64
2022-08-27T03:00:37.175Z,24.54
2022-08-27T03:03:07.526Z,24.49
2022-08-27T03:05:38.771Z,24.58
2022-08-27T03:08:08.312Z,24.56
2022-08-27T03:10:40.340Z,24.71
2022-08-27T03:13:10.973Z,24.98
2022-08-27T03:15:40.510Z,24.89
2022-08-27T03:18:21.955Z,24.80
2022-08-27T03:20:53.083Z,25.50
2022-08-27T03:23:25.003Z,24.90
2022-08-27T03:25:57.755Z,24.83
2022-08-27T03:28:30.806Z,24.88
2022-08-27T03:31:02.500Z,24.90
2022-08-27T03:33:33.599Z,24.92
2022-08-27T03:36:02.895Z,24.89
2022-08-27T03:38:33.177Z,24.84
2022-08-27T03:41:05.482Z,24.90
2022-08-27T03:43:35.837Z,24.87
2022-08-27T03:46:05.341Z,24.96
2022-08-27T03:48:35.508Z,25.01
2022-08-27T03:51:08.409Z,25.05
2022-08-27T03:53:40.898Z,25.07
2022-08-27T03:56:12.760Z,25.08
2022-08-27T03:58:42.635Z,25.06
2022-08-27T04:01:12.484Z,25.07
2022-08-27T04:03:42.307Z,25.09
2022-08-27T04:06:14.719Z,25.19
2022-08-27T04:08:44.303Z,25.30
2022-08-27T04:11:15.207Z,25.46
2022-08-27T04:13:44.643Z,25.62
2022-08-27T04:16:13.901Z,25.73
2022-08-27T04:18:44.537Z,25.85
2022-08-27T04:21:15.739Z,26.10
2022-08-27T04:23:46.358Z,26.95
2022-08-27T04:26:18.643Z,26.42
2022-08-27T04:28:49.379Z,26.37
2022-08-27T04:31:20.331Z,26.36
2022-08-27T04:33:50.670Z,26.49
2022-08-27T04:36:22.031Z,26.57
2022-08-27T04:38:51.380Z,26.59
2022-08-27T04:41:23.435Z,26.61
2022-08-27T04:43:54.007Z,26.66
2022-08-27T04:46:26.198Z,26.82
2022-08-27T04:48:56.915Z,26.70
2022-08-27T04:51:27.107Z,26.77
2022-08-27T04:53:56.875Z,26.85
2022-08-27T04:56:32.738Z,27.11
2022-08-27T04:59:03.994Z,27.06
2022-08-27T05:01:33.407Z,27.69
2022-08-27T05:04:03.240Z,27.05
2022-08-27T05:06:32.391Z,27.07
2022-08-27T05:09:02.064Z,27.13
2022-08-27T05:11:34.953Z,27.27
2022-08-27T05:14:05.175Z,27.32
2022-08-27T05:16:36.590Z,27.24
2022-08-27T05:19:14.859Z,27.30
2022-08-27T05:21:48.404Z,27.31
2022-08-27T05:24:19.053Z,27.33
2022-08-27T05:29:16.999Z,27.50
2022-08-27T05:31:48.705Z,27.60
2022-08-27T05:34:25.735Z,27.68
2022-08-27T05:36:57.840Z,27.77
2022-08-27T05:39:27.608Z,27.85
2022-08-27T05:41:59.285Z,27.97
2022-08-27T05:44:40.999Z,27.98
2022-08-27T05:47:12.033Z,27.97
2022-08-27T05:49:41.917Z,27.94
2022-08-27T05:52:12.992Z,27.95
2022-08-27T05:54:42.117Z,28.08
2022-08-27T05:57:11.455Z,28.16
2022-08-27T06:00:01.511Z,28.34
2022-08-27T06:02:37.412Z,28.30
2022-08-27T06:05:11.038Z,28.25
2022-08-27T06:07:41.067Z,28.27
2022-08-27T06:10:12.465Z,28.47
2022-08-27T06:12:41.838Z,28.54
2022-08-27T06:15:13.314Z,28.78
2022-08-27T06:17:43.332Z,28.86
2022-08-27T06:20:12.371Z,28.80
2022-08-27T06:22:41.796Z,28.97
2022-08-27T06:25:12.276Z,29.25
2022-08-27T06:27:41.759Z,29.46
2022-08-27T06:30:17.427Z,29.73
2022-08-27T06:32:47.656Z,29.94
2022-08-27T06:35:17.575Z,30.15
2022-08-27T06:37:48.102Z,30.78
2022-08-27T06:40:18.280Z,31.17
2022-08-27T06:42:47.890Z,31.73
2022-08-27T06:45:19.344Z,32.25
2022-08-27T06:47:49.312Z,32.58
2022-08-27T06:50:24.241Z,32.63
2022-08-27T06:52:57.216Z,32.75
2022-08-27T06:55:28.365Z,32.97
2022-08-27T06:57:57.799Z,34.06
2022-08-27T07:00:28.601Z,33.80
2022-08-27T07:02:58.300Z,34.11
2022-08-27T07:05:29.119Z,34.27
2022-08-27T07:07:59.108Z,34.43
2022-08-27T07:10:29.936Z,34.82
2022-08-27T07:12:59.509Z,36.05
2022-08-27T07:15:30.847Z,35.46
2022-08-27T07:18:02.684Z,35.70
2022-08-27T07:20:35.333Z,35.76
2022-08-27T07:23:07.381Z,36.39
2022-08-27T07:25:43.416Z,36.30
2022-08-27T07:28:15.020Z,35.72
2022-08-27T07:30:48.136Z,35.70
2022-08-27T07:33:18.020Z,34.85
2022-08-27T07:35:52.454Z,35.44
2022-08-27T07:38:23.149Z,35.95
2022-08-27T07:40:56.144Z,36.13
2022-08-27T07:43:45.222Z,36.15
2022-08-27T07:46:16.903Z,36.56
2022-08-27T07:48:46.309Z,36.24
2022-08-27T07:51:18.227Z,36.15
2022-08-27T07:53:49.835Z,36.02
2022-08-27T07:56:22.124Z,36.12
2022-08-27T07:58:53.854Z,35.99
2022-08-27T08:03:56.043Z,36.56
2022-08-27T08:06:26.560Z,36.80
2022-08-27T08:08:56.742Z,37.27
2022-08-27T08:11:26.427Z,37.59
2022-08-27T08:13:56.382Z,37.33
2022-08-27T08:16:31.901Z,37.80
2022-08-27T08:19:03.835Z,38.40
2022-08-27T08:21:33.748Z,38.40
2022-08-27T08:24:05.575Z,38.95
2022-08-27T08:26:37.343Z,39.04
2022-08-27T08:29:13.304Z,39.02
2022-08-27T08:31:49.953Z,39.34
2022-08-27T08:34:22.784Z,39.84
2022-08-27T08:36:55.155Z,39.48
2022-08-27T08:39:26.100Z,39.36
2022-08-27T08:41:57.916Z,39.84
2022-08-27T08:44:32.828Z,40.44
2022-08-27T08:47:07.289Z,40.89
2022-08-27T08:49:51.004Z,41.24
2022-08-27T08:52:34.520Z,39.70
2022-08-27T08:55:16.811Z,39.58
2022-08-27T08:57:55.234Z,39.96
2022-08-27T09:00:25.530Z,39.86
2022-08-27T09:02:56.330Z,39.95
2022-08-27T09:05:28.454Z,40.11
2022-08-27T09:08:28.903Z,39.79
2022-08-27T09:11:07.197Z,39.47
2022-08-27T09:13:42.093Z,40.19
2022-08-27T09:16:12.593Z,39.67
2022-08-27T09:18:45.362Z,39.71
2022-08-27T09:21:28.601Z,39.01
2022-08-27T09:24:06.635Z,38.88
2022-08-27T09:26:39.797Z,38.21
2022-08-27T09:29:20.425Z,38.56
2022-08-27T09:31:56.183Z,39.31
2022-08-27T09:34:26.253Z,39.56
2022-08-27T09:37:03.278Z,40.66
2022-08-27T09:39:43.314Z,41.19
2022-08-27T09:42:29.207Z,41.66
2022-08-27T09:45:00.163Z,41.12
2022-08-27T09:47:30.085Z,40.90
2022-08-27T09:50:09.879Z,41.47
2022-08-27T09:52:51.714Z,41.71
2022-08-27T09:55:37.217Z,41.99
2022-08-27T09:58:08.583Z,41.15
2022-08-27T10:00:40.508Z,40.81
2022-08-27T10:03:13.892Z,41.10
2022-08-27T10:05:50.916Z,41.59
2022-08-27T10:08:28.577Z,42.25
2022-08-27T10:11:01.123Z,42.16
2022-08-27T10:13:34.966Z,41.58
2022-08-27T10:16:20.745Z,40.33
2022-08-27T10:19:00.087Z,40.20
2022-08-27T10:21:37.624Z,40.25
2022-08-27T10:24:23.617Z,39.45
2022-08-27T10:27:04.987Z,39.57
2022-08-27T10:29:42.754Z,40.08
2022-08-27T10:32:26.336Z,40.02
2022-08-27T10:35:07.222Z,39.27
2022-08-27T10:37:45.766Z,38.47
2022-08-27T10:40:23.954Z,38.60
2022-08-27T10:43:08.170Z,38.91
2022-08-27T10:45:47.765Z,39.81
2022-08-27T10:48:27.395Z,39.91
2022-08-27T10:51:05.456Z,40.24
2022-08-27T10:53:44.310Z,40.28
2022-08-27T10:56:23.500Z,40.39
2022-08-27T10:59:11.613Z,40.36
2022-08-27T11:01:49.155Z,39.73
2022-08-27T11:04:24.879Z,39.90
2022-08-27T11:06:59.385Z,39.26
2022-08-27T11:09:37.671Z,38.45
2022-08-27T11:12:14.662Z,37.22
2022-08-27T11:14:52.752Z,36.64
2022-08-27T11:17:32.218Z,36.36
2022-08-27T11:20:09.814Z,36.23
2022-08-27T11:22:44.292Z,37.07
2022-08-27T11:25:32.360Z,37.71
2022-08-27T11:28:08.201Z,37.89
2022-08-27T11:30:47.388Z,38.60
2022-08-27T11:33:22.687Z,39.35
2022-08-27T11:36:18.122Z,40.11
2022-08-27T11:38:55.617Z,40.19
2022-08-27T11:41:44.718Z,40.68
2022-08-27T11:44:17.755Z,40.31
2022-08-27T11:46:49.693Z,39.27
2022-08-27T11:49:28.983Z,39.28
2022-08-27T11:52:03.461Z,38.08
2022-08-27T11:54:46.162Z,37.94
2022-08-27T11:57:31.079Z,38.53
2022-08-27T12:00:17.589Z,39.39
2022-08-27T12:02:58.656Z,38.97
2022-08-27T12:05:48.644Z,39.26
2022-08-27T12:08:29.277Z,38.53
2022-08-27T12:11:21.342Z,38.34
2022-08-27T12:14:00.340Z,38.04
2022-08-27T12:16:42.286Z,37.88
2022-08-27T12:19:35.560Z,37.63
2022-08-27T12:22:17.304Z,37.33
2022-08-27T12:24:55.648Z,36.97
2022-08-27T12:27:34.744Z,36.75
2022-08-27T12:30:10.845Z,36.59
2022-08-27T12:32:55.312Z,36.44
2022-08-27T12:35:35.288Z,36.24
2022-08-27T12:38:17.598Z,36.17
2022-08-27T12:40:50.992Z,35.76
2022-08-27T12:43:23.411Z,35.63
2022-08-27T12:45:55.628Z,35.56
2022-08-27T12:48:32.743Z,35.57
2022-08-27T12:51:05.781Z,35.33
2022-08-27T12:53:44.686Z,35.28
2022-08-27T12:56:45.886Z,35.36
2022-08-27T12:59:29.456Z,36.15
2022-08-27T13:02:13.696Z,35.37
2022-08-27T13:04:45.339Z,35.23
2022-08-27T13:07:15.715Z,35.08
2022-08-27T13:09:45.676Z,35.05
2022-08-27T13:12:19.912Z,35.12
2022-08-27T13:14:57.086Z,35.13
2022-08-27T13:17:27.725Z,34.88
2022-08-27T13:20:00.988Z,34.92
2022-08-27T13:22:41.019Z,34.84
2022-08-27T13:25:24.031Z,34.60
2022-08-27T13:27:59.768Z,34.42
2022-08-27T13:30:35.597Z,34.33
2022-08-27T13:33:09.161Z,34.32
2022-08-27T13:35:42.825Z,34.13
2022-08-27T13:38:12.818Z,34.09
2022-08-27T13:40:55.066Z,34.44
2022-08-27T13:43:33.910Z,34.22
2022-08-27T13:46:07.502Z,34.04
2022-08-27T13:48:41.600Z,33.95
2022-08-27T13:51:15.835Z,33.99
2022-08-27T13:54:09.519Z,33.84
2022-08-27T13:56:43.456Z,33.80
2022-08-27T13:59:26.038Z,33.69
2022-08-27T14:02:01.236Z,33.77
2022-08-27T14:04:40.623Z,33.71
2022-08-27T14:07:15.623Z,33.46
2022-08-27T14:09:54.601Z,33.36
2022-08-27T14:12:33.377Z,33.31
2022-08-27T14:15:21.968Z,33.31
2022-08-27T14:17:52.165Z,32.93
2022-08-27T14:20:22.952Z,32.86
2022-08-27T14:22:54.396Z,32.76
2022-08-27T14:25:24.773Z,32.68
2022-08-27T14:27:57.865Z,32.65
2022-08-27T14:30:30.157Z,32.47
2022-08-27T14:33:02.608Z,32.46
2022-08-27T14:35:35.213Z,32.44
2022-08-27T14:38:14.872Z,32.60
2022-08-27T14:40:46.116Z,32.54
2022-08-27T14:43:21.046Z,32.65
2022-08-27T14:45:53.662Z,32.46
2022-08-27T14:48:29.159Z,32.70
2022-08-27T14:51:00.461Z,32.66
2022-08-27T14:53:32.093Z,32.56
2022-08-27T14:56:02.348Z,32.25
2022-08-27T14:58:32.371Z,32.16
2022-08-27T15:01:04.575Z,32.05
2022-08-27T15:03:35.895Z,32.04
2022-08-27T15:06:05.301Z,31.93
2022-08-27T15:08:36.574Z,31.94
2022-08-27T15:11:06.764Z,31.76
2022-08-27T15:13:38.514Z,31.78
2022-08-27T15:16:10.247Z,31.73
2022-08-27T15:18:40.430Z,31.59
2022-08-27T15:21:10.343Z,31.52
2022-08-27T15:23:41.239Z,31.47
2022-08-27T15:26:10.884Z,31.34
2022-08-27T15:28:43.676Z,31.34
2022-08-27T15:31:15.588Z,31.27
2022-08-27T15:33:47.254Z,31.22
2022-08-27T15:36:18.316Z,31.14
2022-08-27T15:38:54.716Z,31.22
2022-08-27T15:41:29.105Z,31.00
2022-08-27T15:44:00.877Z,30.91
2022-08-27T15:46:31.399Z,30.86
2022-08-27T15:49:01.539Z,30.75
2022-08-27T15:51:35.017Z,30.70
2022-08-27T15:54:06.406Z,30.59
2022-08-27T15:56:39.174Z,30.51
2022-08-27T15:59:10.395Z,30.47
2022-08-27T16:01:41.402Z,30.38
2022-08-27T16:04:12.621Z,31.05
2022-08-27T16:06:42.622Z,30.40
2022-08-27T16:09:14.305Z,30.26
2022-08-27T16:11:45.718Z,30.12
2022-08-27T16:14:15.920Z,30.02
2022-08-27T16:16:49.037Z,30.00
2022-08-27T16:19:20.608Z,29.94
2022-08-27T16:21:52.500Z,29.81
2022-08-27T16:24:23.749Z,29.80
2022-08-27T16:26:52.721Z,30.40
2022-08-27T16:29:25.078Z,29.67
2022-08-27T16:32:01.020Z,29.45
2022-08-27T16:34:32.119Z,29.45
2022-08-27T16:37:02.282Z,29.35
2022-08-27T16:39:37.413Z,29.41
2022-08-27T16:42:10.939Z,29.31
2022-08-27T16:44:42.183Z,29.25
2022-08-27T16:47:14.428Z,29.84
2022-08-27T16:50:03.251Z,29.27
2022-08-27T16:52:33.452Z,29.06
2022-08-27T16:55:04.919Z,28.98
2022-08-27T16:57:34.843Z,28.83
2022-08-27T17:00:06.335Z,28.86
2022-08-27T17:02:38.173Z,28.78
2022-08-27T17:05:33.495Z,28.80
2022-08-27T17:08:02.461Z,28.73
2022-08-27T17:10:37.205Z,28.81
2022-08-27T17:13:08.603Z,28.69
2022-08-27T17:15:39.824Z,28.73
2022-08-27T17:18:10.493Z,28.70
2022-08-27T17:20:43.187Z,28.74
2022-08-27T17:23:21.714Z,28.82
2022-08-27T17:25:53.717Z,28.80
2022-08-27T17:28:24.509Z,28.78
2022-08-27T17:30:57.633Z,28.83
2022-08-27T17:33:31.769Z,28.79
2022-08-27T17:36:02.613Z,28.72
2022-08-27T17:38:38.448Z,28.73
2022-08-27T17:41:13.769Z,28.73
2022-08-27T17:43:44.116Z,28.58
2022-08-27T17:46:13.977Z,28.59
2022-08-27T17:48:44.760Z,28.53
2022-08-27T17:51:15.206Z,28.53
2022-08-27T17:53:48.849Z,28.59
2022-08-27T17:56:24.385Z,28.47
2022-08-27T17:58:57.924Z,28.40
2022-08-27T18:01:32.241Z,28.36
2022-08-27T18:04:07.633Z,28.34
2022-08-27T18:06:41.018Z,28.24
2022-08-27T18:09:12.166Z,28.15
2022-08-27T18:11:46.492Z,28.15
2022-08-27T18:14:18.626Z,28.01
2022-08-27T18:16:49.692Z,27.97
2022-08-27T18:19:19.124Z,27.96
2022-08-27T18:21:49.598Z,27.92
2022-08-27T18:24:19.925Z,27.94
2022-08-27T18:26:51.274Z,27.98
2022-08-27T18:29:21.539Z,27.88
2022-08-27T18:31:51.137Z,27.90
2022-08-27T18:34:21.628Z,27.89
2022-08-27T18:36:51.263Z,27.85
2022-08-27T18:39:25.834Z,27.78
2022-08-27T18:41:59.220Z,27.81
2022-08-27T18:44:28.752Z,27.69
2022-08-27T18:46:58.087Z,27.59
2022-08-27T18:49:28.376Z,27.60
2022-08-27T18:51:58.667Z,27.58
2022-08-27T18:54:28.812Z,27.61
2022-08-27T18:56:59.717Z,27.68
2022-08-27T18:59:30.259Z,27.67
2022-08-27T19:01:59.823Z,27.69
2022-08-27T19:04:34.040Z,27.75
2022-08-27T19:07:05.183Z,27.70
2022-08-27T19:09:35.514Z,27.65
2022-08-27T19:12:07.966Z,27.68
2022-08-27T19:14:39.049Z,27.66
2022-08-27T19:17:10.868Z,27.66
2022-08-27T19:19:41.620Z,27.57
2022-08-27T19:22:11.288Z,27.54
2022-08-27T19:24:41.633Z,27.48
2022-08-27T19:27:12.867Z,27.49
2022-08-27T19:29:42.255Z,28.04
2022-08-27T19:32:11.738Z,27.41
2022-08-27T19:34:41.860Z,27.32
2022-08-27T19:37:15.996Z,27.26
2022-08-27T19:39:46.839Z,27.15
2022-08-27T19:42:18.134Z,27.18
2022-08-27T19:44:48.313Z,27.76
2022-08-27T19:47:21.579Z,27.20
2022-08-27T19:49:53.237Z,27.03
2022-08-27T19:52:24.510Z,27.03
2022-08-27T19:55:13.119Z,27.61
2022-08-27T19:57:47.174Z,27.71
2022-08-27T20:00:20.409Z,27.17
2022-08-27T20:02:51.102Z,27.06
2022-08-27T20:05:23.039Z,27.06
2022-08-27T20:07:54.687Z,27.02
2022-08-27T20:10:33.316Z,27.00
2022-08-27T20:13:08.494Z,27.01
2022-08-27T20:15:39.444Z,26.88
2022-08-27T20:18:19.142Z,27.03
2022-08-27T20:20:57.352Z,26.92
2022-08-27T20:23:32.058Z,26.92
2022-08-27T20:26:02.695Z,26.85
2022-08-27T20:28:40.412Z,26.93
2022-08-27T20:31:10.466Z,26.79
2022-08-27T20:33:40.910Z,26.80
2022-08-27T20:36:11.764Z,26.83
2022-08-27T20:38:41.929Z,26.84
2022-08-27T20:41:13.450Z,26.75
2022-08-27T20:43:47.767Z,26.78
2022-08-27T20:46:26.085Z,26.83
2022-08-27T20:48:56.725Z,26.73
2022-08-27T20:51:27.793Z,26.74
2022-08-27T20:53:59.534Z,26.76
2022-08-27T20:56:33.244Z,26.81
2022-08-27T20:59:23.758Z,26.86
2022-08-27T21:01:54.537Z,26.83
2022-08-27T21:04:26.028Z,26.76
2022-08-27T21:06:55.884Z,26.79
2022-08-27T21:09:26.825Z,26.80
2022-08-27T21:11:58.031Z,26.85
2022-08-27T21:14:30.901Z,26.87
2022-08-27T21:17:02.531Z,26.83
2022-08-27T21:19:33.978Z,26.89
2022-08-27T21:22:06.811Z,26.84
2022-08-27T21:24:36.853Z,26.86
2022-08-27T21:27:07.913Z,26.85
2022-08-27T21:29:39.174Z,26.79
2022-08-27T21:32:09.795Z,26.71
2022-08-27T21:34:39.448Z,26.75
2022-08-27T21:37:09.254Z,26.72
2022-08-27T21:39:40.825Z,26.73
2022-08-27T21:42:11.054Z,26.68
2022-08-27T21:44:41.869Z,26.70
2022-08-27T21:47:11.515Z,26.71
2022-08-27T21:49:41.189Z,26.62
2022-08-27T21:52:11.026Z,26.61
2022-08-27T21:54:42.755Z,26.57
2022-08-27T21:57:15.769Z,26.54
2022-08-27T21:59:48.347Z,26.64
2022-08-27T22:02:39.437Z,26.52
2022-08-27T22:05:12.705Z,26.57
2022-08-27T22:07:42.179Z,26.44
2022-08-27T22:10:11.736Z,26.43
2022-08-27T22:12:41.557Z,26.37
2022-08-27T22:15:12.900Z,26.43
2022-08-27T22:17:42.304Z,26.34
2022-08-27T22:20:12.314Z,26.33
2022-08-27T22:22:41.784Z,26.28
2022-08-27T22:25:11.721Z,26.29
2022-08-27T22:27:41.575Z,26.23
2022-08-27T22:30:14.681Z,26.30
2022-08-27T22:32:44.703Z,26.26
2022-08-27T22:35:17.127Z,26.29
2022-08-27T22:37:48.679Z,26.22
2022-08-27T22:40:21.769Z,26.25
2022-08-27T22:42:52.947Z,26.18
2022-08-27T22:45:24.704Z,26.21
2022-08-27T22:47:54.024Z,26.16
2022-08-27T22:50:24.645Z,26.22
2022-08-27T22:52:58.172Z,26.30
2022-08-27T22:55:27.816Z,26.22
2022-08-27T22:57:57.955Z,26.22
2022-08-27T23:00:31.029Z,26.26
2022-08-27T23:03:01.104Z,26.21
2022-08-27T23:05:41.891Z,26.25
2022-08-27T23:08:14.226Z,26.28
2022-08-27T23:10:44.564Z,26.18
2022-08-27T23:13:14.435Z,26.18
2022-08-27T23:15:45.123Z,26.20
2022-08-27T23:18:15.266Z,26.23
2022-08-27T23:20:44.898Z,26.26
2022-08-27T23:23:14.016Z,26.17
2022-08-27T23:26:01.947Z,26.09
2022-08-27T23:28:30.955Z,26.06
2022-08-27T23:31:02.611Z,26.06
2022-08-27T23:33:32.023Z,25.96
2022-08-27T23:36:01.416Z,25.96
2022-08-27T23:38:30.973Z,25.86
2022-08-27T23:41:00.308Z,25.87
2022-08-27T23:43:32.270Z,25.85
2022-08-27T23:46:02.955Z,25.89
2022-08-27T23:48:32.177Z,25.81
2022-08-27T23:51:01.534Z,25.76
2022-08-27T23:53:32.280Z,25.82
2022-08-27T23:56:01.344Z,25.75
2022-08-27T23:58:30.855Z,25.70
